createdAt,value
2018-04-02T00:00:15.100Z,36.50
2018-04-02T00:02:43.379Z,36.50
2018-04-02T00:05:11.671Z,36.50
2018-04-02T00:07:39.989Z,36.50
2018-04-02T00:10:08.674Z,36.50
2018-04-02T00:12:37.439Z,36.50
2018-04-02T00:15:05.755Z,36.50
2018-04-02T00:17:34.039Z,36.50
2018-04-02T00:20:02.319Z,36.50
2018-04-02T00:22:30.727Z,36.50
2018-04-02T00:24:59.024Z,36.50
2018-04-02T00:27:27.298Z,36.30
2018-04-02T00:29:55.695Z,36.50
2018-04-02T00:32:23.968Z,36.30
2018-04-02T00:34:52.246Z,36.30
2018-04-02T00:37:20.523Z,36.30
2018-04-02T00:39:49.216Z,36.30
2018-04-02T00:42:17.888Z,36.30
2018-04-02T00:44:46.627Z,36.30
2018-04-02T00:47:14.906Z,36.30
2018-04-02T00:49:43.195Z,36.30
2018-04-02T00:52:11.499Z,36.30
2018-04-02T00:54:39.789Z,36.30
2018-04-02T00:57:08.089Z,36.30
2018-04-02T00:59:36.633Z,36.30
2018-04-02T01:02:05.163Z,36.30
2018-04-02T01:04:33.447Z,36.30
2018-04-02T01:07:01.777Z,36.30
2018-04-02T01:09:30.050Z,36.30
2018-04-02T01:11:58.814Z,36.30
2018-04-02T01:14:27.139Z,36.30
2018-04-02T01:16:55.415Z,36.30
2018-04-02T01:19:24.114Z,36.30
2018-04-02T01:21:52.411Z,36.30
2018-04-02T01:24:20.687Z,36.30
2018-04-02T01:26:48.967Z,36.30
2018-04-02T01:29:17.266Z,36.30
2018-04-02T01:31:45.862Z,36.30
2018-04-02T01:34:14.143Z,36.30
2018-04-02T01:36:42.463Z,36.30
2018-04-02T01:39:11.403Z,36.30
2018-04-02T01:41:39.667Z,36.30
2018-04-02T01:44:07.975Z,36.30
2018-04-02T01:46:36.280Z,36.30
2018-04-02T01:49:04.558Z,36.30
2018-04-02T01:51:33.772Z,36.30
2018-04-02T01:54:02.058Z,36.30
2018-04-02T01:56:30.426Z,36.30
2018-04-02T01:58:58.730Z,36.30
2018-04-02T02:01:27.004Z,36.20
2018-04-02T02:03:55.612Z,36.20
2018-04-02T02:06:23.927Z,36.30
2018-04-02T02:08:52.216Z,36.30
2018-04-02T02:11:20.496Z,36.20
2018-04-02T02:13:48.867Z,36.20
2018-04-02T02:16:17.164Z,36.20
2018-04-02T02:18:45.445Z,36.20
2018-04-02T02:21:13.809Z,36.20
2018-04-02T02:23:42.095Z,36.20
2018-04-02T02:26:10.372Z,36.20
2018-04-02T02:28:38.698Z,36.20
2018-04-02T02:31:06.971Z,36.20
2018-04-02T02:33:35.651Z,36.20
2018-04-02T02:36:04.350Z,36.20
2018-04-02T02:38:32.629Z,36.20
2018-04-02T02:41:00.899Z,36.20
2018-04-02T02:43:29.221Z,36.20
2018-04-02T02:45:58.090Z,36.20
2018-04-02T02:48:27.471Z,36.20
2018-04-02T02:50:56.511Z,36.20
2018-04-02T02:53:26.538Z,36.20
2018-04-02T02:55:56.255Z,36.20
2018-04-02T02:58:25.992Z,36.20
2018-04-02T03:00:54.804Z,36.20
2018-04-02T03:03:23.121Z,36.20
2018-04-02T03:05:51.455Z,36.20
2018-04-02T03:08:19.774Z,36.20
2018-04-02T03:10:48.068Z,36.20
2018-04-02T03:13:16.645Z,36.20
2018-04-02T03:15:45.103Z,36.20
2018-04-02T03:18:13.711Z,36.20
2018-04-02T03:20:42.393Z,36.00
2018-04-02T03:23:10.696Z,36.20
2018-04-02T03:25:39.014Z,36.00
2018-04-02T03:28:07.527Z,36.00
2018-04-02T03:30:35.832Z,36.00
2018-04-02T03:33:05.520Z,36.00
2018-04-02T03:35:33.807Z,36.00
2018-04-02T03:38:02.148Z,36.00
2018-04-02T03:40:30.430Z,36.00
2018-04-02T03:42:58.734Z,36.00
2018-04-02T03:45:27.056Z,36.00
2018-04-02T03:47:55.328Z,36.00
2018-04-02T03:50:23.604Z,36.00
2018-04-02T03:52:51.912Z,36.00
2018-04-02T03:55:20.192Z,36.20
2018-04-02T03:57:48.531Z,36.20
2018-04-02T04:00:16.825Z,36.00
2018-04-02T04:02:45.135Z,36.20
2018-04-02T04:05:13.444Z,36.20
2018-04-02T04:07:42.132Z,36.20
2018-04-02T04:10:10.417Z,36.20
2018-04-02T04:12:38.764Z,36.20
2018-04-02T04:15:07.054Z,36.20
2018-04-02T04:17:35.369Z,36.20
2018-04-02T04:20:03.671Z,36.20
2018-04-02T04:22:31.960Z,36.20
2018-04-02T04:25:00.748Z,36.20
2018-04-02T04:27:29.088Z,36.20
2018-04-02T04:29:57.375Z,36.20
2018-04-02T04:32:26.146Z,36.20
2018-04-02T04:34:54.451Z,36.20
2018-04-02T04:37:22.745Z,36.00
2018-04-02T04:39:51.259Z,36.00
2018-04-02T04:42:19.595Z,36.00
2018-04-02T04:44:48.295Z,36.00
2018-04-02T04:47:17.686Z,36.00
2018-04-02T04:49:46.249Z,36.00
2018-04-02T04:52:14.552Z,36.00
2018-04-02T04:54:42.833Z,36.00
2018-04-02T04:57:11.128Z,36.00
2018-04-02T04:59:39.817Z,36.00
2018-04-02T05:02:08.508Z,35.90
2018-04-02T05:04:36.817Z,35.90
2018-04-02T05:07:05.358Z,35.90
2018-04-02T05:09:33.811Z,35.90
2018-04-02T05:12:02.183Z,35.90
2018-04-02T05:14:30.475Z,35.90
2018-04-02T05:16:58.761Z,35.90
2018-04-02T05:19:27.071Z,35.90
2018-04-02T05:21:55.480Z,35.90
2018-04-02T05:24:23.764Z,35.70
2018-04-02T05:26:52.100Z,35.70
2018-04-02T05:29:20.379Z,35.70
2018-04-02T05:31:48.678Z,35.70
2018-04-02T05:34:16.985Z,35.60
2018-04-02T05:36:45.277Z,35.40
2018-04-02T05:39:14.002Z,35.40
2018-04-02T05:41:42.312Z,35.40
2018-04-02T05:44:10.905Z,35.40
2018-04-02T05:46:39.419Z,35.40
2018-04-02T05:49:07.752Z,35.40
2018-04-02T05:51:36.036Z,35.30
2018-04-02T05:54:04.623Z,35.30
2018-04-02T05:56:33.327Z,35.30
2018-04-02T05:59:01.738Z,35.10
2018-04-02T06:01:30.271Z,35.10
2018-04-02T06:03:58.565Z,35.10
2018-04-02T06:06:26.836Z,35.10
2018-04-02T06:08:55.606Z,35.10
2018-04-02T06:11:24.062Z,35.00
2018-04-02T06:13:52.394Z,35.00
2018-04-02T06:16:21.104Z,34.80
2018-04-02T06:18:49.392Z,34.80
2018-04-02T06:21:19.664Z,34.80
2018-04-02T06:23:48.733Z,34.70
2018-04-02T06:26:18.852Z,34.70
2018-04-02T06:28:47.834Z,34.50
2018-04-02T06:31:16.571Z,34.50
2018-04-02T06:33:45.108Z,34.40
2018-04-02T06:36:13.490Z,34.40
2018-04-02T06:38:48.116Z,34.10
2018-04-02T06:41:16.910Z,34.10
2018-04-02T06:43:45.425Z,34.00
2018-04-02T06:46:14.115Z,34.00
2018-04-02T06:48:42.435Z,34.00
2018-04-02T06:51:10.755Z,33.80
2018-04-02T06:53:39.033Z,33.80
2018-04-02T06:56:09.399Z,33.80
2018-04-02T06:58:37.905Z,33.70
2018-04-02T07:01:06.207Z,33.40
2018-04-02T07:03:34.608Z,32.50
2018-04-02T07:06:02.940Z,32.00
2018-04-02T07:08:31.319Z,31.70
2018-04-02T07:10:59.661Z,31.70
2018-04-02T07:13:28.345Z,31.00
2018-04-02T07:15:56.619Z,31.00
2018-04-02T07:18:24.995Z,29.70
2018-04-02T07:20:53.346Z,29.10
2018-04-02T07:23:22.650Z,27.60
2018-04-02T07:25:51.874Z,27.00
2018-04-02T07:28:22.804Z,27.00
2018-04-02T07:30:51.678Z,26.90
2018-04-02T07:33:22.074Z,25.70
2018-04-02T07:35:50.626Z,25.70
2018-04-02T07:38:19.005Z,25.10
2018-04-02T07:40:49.802Z,24.40
2018-04-02T07:43:18.294Z,23.70
2018-04-02T07:45:49.048Z,23.30
2018-04-02T07:48:22.650Z,23.30
2018-04-02T07:50:52.740Z,23.00
2018-04-02T07:53:22.154Z,22.50
2018-04-02T07:55:52.626Z,21.90
2018-04-02T07:58:25.126Z,21.00
2018-04-02T08:00:59.702Z,21.00
2018-04-02T08:03:28.425Z,20.70
2018-04-02T08:05:56.712Z,20.40
2018-04-02T08:08:25.436Z,19.90
2018-04-02T08:10:53.961Z,19.90
2018-04-02T08:13:22.895Z,19.70
2018-04-02T08:15:51.746Z,19.50
2018-04-02T08:18:20.618Z,19.40
2018-04-02T08:20:50.046Z,19.30
2018-04-02T08:23:19.242Z,19.30
2018-04-02T08:25:48.570Z,19.40
2018-04-02T08:28:18.269Z,19.50
2018-04-02T08:30:46.654Z,19.50
2018-04-02T08:33:16.025Z,20.10
2018-04-02T08:35:45.054Z,20.10
2018-04-02T08:38:13.682Z,20.40
2018-04-02T08:40:42.758Z,20.70
2018-04-02T08:43:12.011Z,21.10
2018-04-02T08:45:40.745Z,21.60
2018-04-02T08:48:09.595Z,22.30
2018-04-02T08:50:38.750Z,22.30
2018-04-02T08:53:07.503Z,22.80
2018-04-02T08:55:35.795Z,22.80
2018-04-02T08:58:04.070Z,22.80
2018-04-02T09:00:32.379Z,22.90
2018-04-02T09:03:00.676Z,23.70
2018-04-02T09:05:28.960Z,23.50
2018-04-02T09:07:57.667Z,23.30
2018-04-02T09:10:25.955Z,23.30
2018-04-02T09:12:54.272Z,23.20
2018-04-02T09:15:22.595Z,23.10
2018-04-02T09:17:51.141Z,23.00
2018-04-02T09:20:19.900Z,22.70
2018-04-02T09:22:48.179Z,22.70
2018-04-02T09:25:16.471Z,22.60
2018-04-02T09:27:44.803Z,22.60
2018-04-02T09:30:13.202Z,22.60
2018-04-02T09:32:41.511Z,22.40
2018-04-02T09:35:10.139Z,22.50
2018-04-02T09:37:38.892Z,22.30
2018-04-02T09:40:07.897Z,22.10
2018-04-02T09:42:36.272Z,22.10
2018-04-02T09:45:04.588Z,22.00
2018-04-02T09:47:33.292Z,21.90
2018-04-02T09:50:02.736Z,21.80
2018-04-02T09:52:34.818Z,21.20
2018-04-02T09:55:03.350Z,21.20
2018-04-02T09:57:31.764Z,21.00
2018-04-02T10:00:00.466Z,20.20
2018-04-02T10:02:37.500Z,19.90
2018-04-02T10:05:14.616Z,19.90
2018-04-02T10:07:45.607Z,19.50
2018-04-02T10:10:13.981Z,19.30
2018-04-02T10:12:43.689Z,19.10
2018-04-02T10:15:12.763Z,19.10
2018-04-02T10:17:41.647Z,19.00
2018-04-02T10:20:10.024Z,19.00
2018-04-02T10:22:38.348Z,18.90
2018-04-02T10:25:06.640Z,18.80
2018-04-02T10:27:35.237Z,18.70
2018-04-02T10:30:03.824Z,18.60
2018-04-02T10:32:33.008Z,18.50
2018-04-02T10:35:01.605Z,18.50
2018-04-02T10:37:31.918Z,18.40
2018-04-02T10:40:02.593Z,18.30
2018-04-02T10:42:31.237Z,18.30
2018-04-02T10:45:00.956Z,18.30
2018-04-02T10:47:29.232Z,18.40
2018-04-02T10:49:57.593Z,18.20
2018-04-02T10:52:25.990Z,17.90
2018-04-02T10:54:54.326Z,17.50
2018-04-02T10:57:22.615Z,17.40
2018-04-02T10:59:51.141Z,17.10
2018-04-02T11:02:19.416Z,16.90
2018-04-02T11:04:48.084Z,16.00
2018-04-02T11:07:16.407Z,16.00
2018-04-02T11:09:44.716Z,16.10
2018-04-02T11:12:13.000Z,15.80
2018-04-02T11:14:41.306Z,15.80
2018-04-02T11:17:09.977Z,15.10
2018-04-02T11:19:38.251Z,15.20
2018-04-02T11:22:06.581Z,15.50
2018-04-02T11:24:34.873Z,15.20
2018-04-02T11:27:03.150Z,15.20
2018-04-02T11:29:31.821Z,15.50
2018-04-02T11:32:04.176Z,15.50
2018-04-02T11:34:32.912Z,15.30
2018-04-02T11:37:01.219Z,15.30
2018-04-02T11:39:29.491Z,15.20
2018-04-02T11:41:57.834Z,14.80
2018-04-02T11:44:26.133Z,15.00
2018-04-02T11:46:54.441Z,15.00
2018-04-02T11:49:22.752Z,14.60
2018-04-02T11:51:51.047Z,14.70
2018-04-02T11:54:19.344Z,14.50
2018-04-02T11:56:47.699Z,14.70
2018-04-02T11:59:25.522Z,14.40
2018-04-02T12:01:57.031Z,14.90
2018-04-02T12:04:25.917Z,15.10
2018-04-02T12:06:54.248Z,15.20
2018-04-02T12:09:22.569Z,15.10
2018-04-02T12:11:51.059Z,14.80
2018-04-02T12:14:19.367Z,14.50
2018-04-02T12:16:47.675Z,14.60
2018-04-02T12:19:16.343Z,14.60
2018-04-02T12:21:44.705Z,14.60
2018-04-02T12:24:13.002Z,14.30
2018-04-02T12:26:41.297Z,14.30
2018-04-02T12:29:09.606Z,14.20
2018-04-02T12:31:38.052Z,14.40
2018-04-02T12:34:06.373Z,14.10
2018-04-02T12:36:34.691Z,14.20
2018-04-02T12:39:03.138Z,14.20
2018-04-02T12:41:31.431Z,14.30
2018-04-02T12:44:00.149Z,14.20
2018-04-02T12:46:28.493Z,14.20
2018-04-02T12:48:56.807Z,14.20
2018-04-02T12:51:25.095Z,14.30
2018-04-02T12:53:53.627Z,14.30
2018-04-02T12:56:21.908Z,14.30
2018-04-02T12:58:50.683Z,14.30
2018-04-02T13:01:19.867Z,14.30
2018-04-02T13:03:48.573Z,14.20
2018-04-02T13:06:17.550Z,14.40
2018-04-02T13:08:46.259Z,14.30
2018-04-02T13:11:15.131Z,14.30
2018-04-02T13:13:44.398Z,14.10
2018-04-02T13:16:12.687Z,14.20
2018-04-02T13:18:41.342Z,14.30
2018-04-02T13:21:10.246Z,14.40
2018-04-02T13:23:39.391Z,14.80
2018-04-02T13:26:07.688Z,14.80
2018-04-02T13:28:36.678Z,15.40
2018-04-02T13:31:05.369Z,15.40
2018-04-02T13:33:33.668Z,15.40
2018-04-02T13:36:01.971Z,15.50
2018-04-02T13:38:30.995Z,15.50
2018-04-02T13:40:59.282Z,15.30
2018-04-02T13:43:27.600Z,15.40
2018-04-02T13:45:56.291Z,15.20
2018-04-02T13:48:24.592Z,15.50
2018-04-02T13:50:52.872Z,15.30
2018-04-02T13:53:21.183Z,15.70
2018-04-02T13:55:49.894Z,16.10
2018-04-02T13:58:18.216Z,16.10
2018-04-02T14:00:46.499Z,16.30
2018-04-02T14:03:15.264Z,16.30
2018-04-02T14:05:43.568Z,16.70
2018-04-02T14:08:11.840Z,16.70
2018-04-02T14:10:40.832Z,17.10
2018-04-02T14:13:09.147Z,17.10
2018-04-02T14:15:37.446Z,17.00
2018-04-02T14:18:06.072Z,17.20
2018-04-02T14:20:34.843Z,17.20
2018-04-02T14:23:03.544Z,17.30
2018-04-02T14:25:31.859Z,17.30
2018-04-02T14:28:00.242Z,17.60
2018-04-02T14:30:28.536Z,17.70
2018-04-02T14:32:56.869Z,17.90
2018-04-02T14:35:25.588Z,17.70
2018-04-02T14:37:53.871Z,17.70
2018-04-02T14:40:22.202Z,17.70
2018-04-02T14:42:50.556Z,17.70
2018-04-02T14:45:18.827Z,17.70
2018-04-02T14:47:47.133Z,17.90
2018-04-02T14:50:15.415Z,17.80
2018-04-02T14:52:43.683Z,18.00
2018-04-02T14:55:11.979Z,18.20
2018-04-02T14:57:40.948Z,18.40
2018-04-02T15:00:09.279Z,18.40
2018-04-02T15:02:37.589Z,18.30
2018-04-02T15:05:05.869Z,18.50
2018-04-02T15:07:34.155Z,18.40
2018-04-02T15:10:02.454Z,18.50
2018-04-02T15:12:31.439Z,18.60
2018-04-02T15:14:59.743Z,18.60
2018-04-02T15:17:28.015Z,18.60
2018-04-02T15:19:56.319Z,18.50
2018-04-02T15:22:24.626Z,18.60
2018-04-02T15:24:53.126Z,18.60
2018-04-02T15:27:21.488Z,18.70
2018-04-02T15:29:49.908Z,18.90
2018-04-02T15:32:18.669Z,18.90
2018-04-02T15:34:47.632Z,19.10
2018-04-02T15:37:16.088Z,19.10
2018-04-02T15:39:45.230Z,19.20
2018-04-02T15:42:14.030Z,19.40
2018-04-02T15:44:42.480Z,19.40
2018-04-02T15:47:10.886Z,19.50
2018-04-02T15:49:39.588Z,19.90
2018-04-02T15:52:07.879Z,19.90
2018-04-02T15:54:36.580Z,20.00
2018-04-02T15:57:04.914Z,20.20
2018-04-02T15:59:33.875Z,20.40
2018-04-02T16:02:02.249Z,20.40
2018-04-02T16:04:31.387Z,20.40
2018-04-02T16:07:00.793Z,20.50
2018-04-02T16:09:29.438Z,20.50
2018-04-02T16:11:57.971Z,20.50
2018-04-02T16:14:26.769Z,20.70
2018-04-02T16:16:55.235Z,20.70
2018-04-02T16:19:24.365Z,20.90
2018-04-02T16:21:53.765Z,21.00
2018-04-02T16:24:22.259Z,21.10
2018-04-02T16:26:50.689Z,21.20
2018-04-02T16:29:19.519Z,21.30
2018-04-02T16:31:48.810Z,21.40
2018-04-02T16:34:17.252Z,21.60
2018-04-02T16:36:47.147Z,21.60
2018-04-02T16:39:15.722Z,21.80
2018-04-02T16:41:44.774Z,21.80
2018-04-02T16:44:13.596Z,21.90
2018-04-02T16:46:42.175Z,22.00
2018-04-02T16:49:11.184Z,22.10
2018-04-02T16:51:39.504Z,22.20
2018-04-02T16:54:09.801Z,22.20
2018-04-02T16:56:38.304Z,22.30
2018-04-02T16:59:06.729Z,22.20
2018-04-02T17:01:37.449Z,22.20
2018-04-02T17:04:12.462Z,22.30
2018-04-02T17:06:42.176Z,22.50
2018-04-02T17:09:10.624Z,22.50
2018-04-02T17:11:39.513Z,22.60
2018-04-02T17:14:08.454Z,22.50
2018-04-02T17:16:37.905Z,22.60
2018-04-02T17:19:08.957Z,22.70
2018-04-02T17:21:38.284Z,22.70
2018-04-02T17:24:06.846Z,22.70
2018-04-02T17:26:35.353Z,22.80
2018-04-02T17:29:03.660Z,22.90
2018-04-02T17:31:32.363Z,22.90
2018-04-02T17:34:00.677Z,23.10
2018-04-02T17:36:31.199Z,23.10
2018-04-02T17:39:00.293Z,23.20
2018-04-02T17:41:29.437Z,23.20
2018-04-02T17:43:57.833Z,23.20
2018-04-02T17:46:26.870Z,23.30
2018-04-02T17:48:57.467Z,23.30
2018-04-02T17:51:26.324Z,23.40
2018-04-02T17:53:55.535Z,23.50
2018-04-02T17:56:26.823Z,23.50
2018-04-02T17:58:55.688Z,23.50
2018-04-02T18:01:24.054Z,23.50
2018-04-02T18:03:52.372Z,23.60
2018-04-02T18:06:21.549Z,23.70
2018-04-02T18:08:50.584Z,23.70
2018-04-02T18:11:19.123Z,23.70
2018-04-02T18:13:50.779Z,23.80
2018-04-02T18:16:19.396Z,23.80
2018-04-02T18:18:47.903Z,23.80
2018-04-02T18:21:16.210Z,23.90
2018-04-02T18:23:44.918Z,23.90
2018-04-02T18:26:13.655Z,24.00
2018-04-02T18:28:41.940Z,24.00
2018-04-02T18:31:10.222Z,24.00
2018-04-02T18:33:42.919Z,24.10
2018-04-02T18:36:12.375Z,24.10
2018-04-02T18:38:40.679Z,24.10
2018-04-02T18:41:08.995Z,24.10
2018-04-02T18:43:37.702Z,24.10
2018-04-02T18:46:06.017Z,24.10
2018-04-02T18:48:34.403Z,24.10
2018-04-02T18:51:02.802Z,24.20
2018-04-02T18:53:31.290Z,24.30
2018-04-02T18:55:59.996Z,24.30
2018-04-02T18:58:28.298Z,24.30
2018-04-02T19:00:56.707Z,24.30
2018-04-02T19:03:25.295Z,24.40
2018-04-02T19:05:53.706Z,24.40
2018-04-02T19:08:22.022Z,24.40
2018-04-02T19:10:50.524Z,24.50
2018-04-02T19:13:18.869Z,24.50
2018-04-02T19:15:47.276Z,24.50
2018-04-02T19:18:15.623Z,24.60
2018-04-02T19:20:43.939Z,24.60
2018-04-02T19:23:12.331Z,24.70
2018-04-02T19:25:41.197Z,24.70
2018-04-02T19:28:09.485Z,24.70
2018-04-02T19:30:37.819Z,24.70
2018-04-02T19:33:06.140Z,24.70
2018-04-02T19:35:34.814Z,24.90
2018-04-02T19:38:03.594Z,24.90
2018-04-02T19:40:31.919Z,24.90
2018-04-02T19:43:01.170Z,24.90
2018-04-02T19:45:29.636Z,24.90
2018-04-02T19:47:58.480Z,25.00
2018-04-02T19:50:27.428Z,25.00
2018-04-02T19:52:55.961Z,25.00
2018-04-02T19:55:25.536Z,25.10
2018-04-02T19:57:54.327Z,25.10
2018-04-02T20:00:22.849Z,25.10
2018-04-02T20:02:51.143Z,25.10
2018-04-02T20:05:19.432Z,25.10
2018-04-02T20:07:47.811Z,25.20
2018-04-02T20:10:17.122Z,25.20
2018-04-02T20:12:45.510Z,25.20
2018-04-02T20:15:14.292Z,25.20
2018-04-02T20:17:42.583Z,25.20
2018-04-02T20:20:10.892Z,25.30
2018-04-02T20:22:39.726Z,25.30
2018-04-02T20:25:08.012Z,25.30
2018-04-02T20:27:36.298Z,25.40
2018-04-02T20:30:05.308Z,25.40
2018-04-02T20:32:33.675Z,25.40
2018-04-02T20:35:01.985Z,25.40
2018-04-02T20:37:30.396Z,25.50
2018-04-02T20:39:58.683Z,25.50
2018-04-02T20:42:26.969Z,25.50
2018-04-02T20:44:55.303Z,25.80
2018-04-02T20:47:23.853Z,26.00
2018-04-02T20:49:52.192Z,25.80
2018-04-02T20:52:21.377Z,25.80
2018-04-02T20:54:50.177Z,25.90
2018-04-02T20:57:18.865Z,25.80
2018-04-02T20:59:47.214Z,25.90
2018-04-02T21:02:16.130Z,25.90
2018-04-02T21:04:44.436Z,25.90
2018-04-02T21:07:12.857Z,26.00
2018-04-02T21:09:41.528Z,26.00
2018-04-02T21:12:10.520Z,26.00
2018-04-02T21:14:38.836Z,26.00
2018-04-02T21:17:07.578Z,26.10
2018-04-02T21:19:35.903Z,26.10
2018-04-02T21:22:04.660Z,26.10
2018-04-02T21:24:33.296Z,26.10
2018-04-02T21:27:01.610Z,26.10
2018-04-02T21:29:30.404Z,26.20
2018-04-02T21:31:59.055Z,26.20
2018-04-02T21:34:27.378Z,26.20
2018-04-02T21:36:55.721Z,26.30
2018-04-02T21:39:24.392Z,26.20
2018-04-02T21:41:53.188Z,26.30
2018-04-02T21:44:22.540Z,26.30
2018-04-02T21:46:50.837Z,26.30
2018-04-02T21:49:19.159Z,26.30
2018-04-02T21:51:47.479Z,26.30
2018-04-02T21:54:15.885Z,26.30
2018-04-02T21:56:44.209Z,26.40
2018-04-02T21:59:12.888Z,26.40
2018-04-02T22:01:42.493Z,26.40
2018-04-02T22:04:11.295Z,26.40
2018-04-02T22:06:52.700Z,26.40
2018-04-02T22:09:21.643Z,26.50
2018-04-02T22:11:50.795Z,26.50
2018-04-02T22:14:20.123Z,26.60
2018-04-02T22:16:49.195Z,26.60
2018-04-02T22:19:18.379Z,26.60
2018-04-02T22:21:47.209Z,26.60
2018-04-02T22:24:17.628Z,26.60
2018-04-02T22:26:46.452Z,26.60
2018-04-02T22:29:15.655Z,26.60
2018-04-02T22:31:44.953Z,26.80
2018-04-02T22:34:14.322Z,26.80
2018-04-02T22:36:44.042Z,26.80
2018-04-02T22:39:12.893Z,26.80
2018-04-02T22:41:41.785Z,26.90
2018-04-02T22:44:10.989Z,26.90
2018-04-02T22:46:40.163Z,26.90
2018-04-02T22:49:09.312Z,26.90
2018-04-02T22:51:38.168Z,26.90
2018-04-02T22:54:08.059Z,26.90
2018-04-02T22:56:37.197Z,26.90
2018-04-02T22:59:06.210Z,26.90
2018-04-02T23:01:34.822Z,26.90
2018-04-02T23:04:03.746Z,26.90
2018-04-02T23:06:32.582Z,26.90
2018-04-02T23:09:01.527Z,27.00
2018-04-02T23:11:31.066Z,27.00
2018-04-02T23:14:00.081Z,27.00
2018-04-02T23:16:29.068Z,27.00
2018-04-02T23:18:58.602Z,27.00
2018-04-02T23:21:27.858Z,27.00
2018-04-02T23:23:56.638Z,27.10
2018-04-02T23:26:26.083Z,27.10
2018-04-02T23:28:54.714Z,27.10
2018-04-02T23:31:23.601Z,27.20
2018-04-02T23:33:53.325Z,27.20
2018-04-02T23:36:22.790Z,27.10
2018-04-02T23:38:52.101Z,27.20
2018-04-02T23:41:21.466Z,27.20
2018-04-02T23:43:51.059Z,27.20
2018-04-02T23:46:19.704Z,27.30
2018-04-02T23:48:48.023Z,27.30
2018-04-02T23:51:16.704Z,27.30
2018-04-02T23:53:45.409Z,27.30
2018-04-02T23:56:14.264Z,27.30
2018-04-02T23:58:42.994Z,27.40
